• Join FlightAware (Why Join?)
  • Login
  • US Flag 
09:43AM EDT


 

Airport Tracker/Info


-or-


 

Live Flight TrackerFlight Track Log ✈ AAL1326 ✈ 08-May-2013 ✈ KMCI - KORD

Flight Track Log - Related Links

Times and Time Zones

All times are in EDT time to prevent confusion due to time zone crossing. See the AAL1326 flight status page for this flight to view local times or setup timezone preferences in your user account.

Time Position Orientation Groundspeed Altitude Reporting Facility
EDT Latitude Longitude Course Direction KTS MPH feet Rate Location/Type
04:34PM 39.1780 -94.7210 132° Southeast 237 273 5,500  Level FlightAware
04:34PM 39.1710 -94.7030 117° Southeast 257 296 6,000 2,580 Climbing FlightAware
04:35PM 39.1740 -94.6780 81° East 273 314 6,800 3,000 Climbing FlightAware
04:35PM 39.1860 -94.6570 54° Northeast 279 321 7,500 3,000 Climbing FlightAware
04:35PM 39.2010 -94.6420 38° Northeast 275 316 8,300 2,820 Climbing FlightAware
04:36PM 39.2310 -94.6270 21° North 285 328 9,400 2,820 Climbing FlightAware
04:36PM 39.2790 -94.5970 26° Northeast 295 339 11,400 2,460 Climbing FlightAware
04:37PM 39.3390 -94.5580 27° Northeast 340 391 12,900 2,400 Climbing FlightAware
04:38PM 39.3940 -94.5000 39° Northeast 362 417 15,000 2,700 Climbing FlightAware
04:38PM 39.4480 -94.4400 41° Northeast 385 443 16,800 2,820 Climbing FlightAware
04:39PM 39.5010 -94.3780 42° Northeast 391 450 18,800 2,880 Climbing FlightAware
04:40PM 39.5640 -94.3070 41° Northeast 401 461 20,900 2,700 Climbing FlightAware
04:40PM 39.6210 -94.2440 40° Northeast 405 466 22,700 1,560 Climbing FlightAware
04:41PM 39.6760 -94.1780 43° Northeast 410 472 23,000 1,080 Climbing FlightAware
04:42PM 39.7170 -94.0830 61° Northeast 413 475 24,300 1,860 Climbing FlightAware
04:43PM 39.7470 -93.9920 67° East 422 486 25,700 1,920 Climbing FlightAware
04:43PM 39.7830 -93.8820 67° East 435 501 27,100 2,160 Climbing FlightAware
04:44PM 39.8140 -93.7860 67° East 430 495 28,800 2,220 Climbing FlightAware
04:45PM 39.8450 -93.6900 67° East 433 498 30,100 1,500 Climbing FlightAware
04:45PM 39.8800 -93.5840 67° East 442 509 31,000 600 Climbing FlightAware
04:46PM 39.9120 -93.4830 68° East 442 509 31,000  Level FlightAware
04:47PM 39.9460 -93.3760 67° East 440 506 31,000  Level FlightAware
04:47PM 39.9770 -93.2780 68° East 440 506 31,000  Level FlightAware
04:48PM 40.0130 -93.1670 67° East 439 505 31,000  Level FlightAware
04:49PM 40.0390 -93.0840 68° East 439 505 31,000  Level FlightAware
04:49PM 40.0690 -92.9880 68° East 438 504 31,000  Level FlightAware
04:50PM 40.1050 -92.8750 67° East 439 505 31,000  Level FlightAware
04:51PM 40.1400 -92.7630 68° East 440 506 31,000  Level FlightAware
04:52PM 40.1740 -92.6530 68° East 441 507 31,000  Level FlightAware
04:53PM 40.2160 -92.5170 68° East 441 507 31,000  Level FlightAware
04:53PM 40.2400 -92.4380 68° East 441 507 31,000  Level FlightAware
04:54PM 40.2720 -92.3350 68° East 441 507 31,000  Level FlightAware
04:55PM 40.3090 -92.2130 68° East 439 505 31,000  Level FlightAware
04:55PM 40.3400 -92.1130 68° East 438 504 31,000  Level FlightAware
04:56PM 40.3740 -92.0010 68° East 438 504 31,000  Level FlightAware
04:57PM 40.4010 -91.9140 68° East 438 504 31,000  Level FlightAware
04:57PM 40.4300 -91.8170 69° East 438 504 31,000  Level FlightAware
04:58PM 40.4670 -91.6950 68° East 440 506 31,000 -240 Level FlightAware
04:59PM 40.4990 -91.5860 69° East 436 502 30,700 -480 Descending FlightAware
05:00PM 40.5360 -91.4640 68° East 434 499 30,300 -300 Descending FlightAware
05:00PM 40.5620 -91.3800 68° East 434 499 30,300 -960 Level FlightAware
05:01PM 40.6050 -91.2540 66° East 429 494 29,000 -900 Descending FlightAware
05:02PM 40.6430 -91.1430 66° East 435 501 29,000  Level FlightAware
05:03PM 40.6730 -91.0540 66° East 438 504 29,000  Level FlightAware
05:04PM 40.7210 -90.9140 66° East 437 503 29,000  Level FlightAware
05:04PM 40.7650 -90.7840 66° East 437 503 29,000  Level FlightAware
05:05PM 40.8020 -90.6720 66° East 437 503 29,000  Level FlightAware
05:06PM 40.8410 -90.5560 66° East 438 504 29,000  Level FlightAware
05:07PM 40.8810 -90.4380 66° East 440 506 29,000  Level FlightAware
05:08PM 40.9160 -90.3310 67° East 439 505 29,000  Level FlightAware
05:08PM 40.9500 -90.2290 66° East 440 506 29,000 -300 Level FlightAware
05:09PM 40.9820 -90.1310 67° East 438 504 28,600 -780 Descending FlightAware
05:10PM 41.0190 -90.0190 66° East 438 504 27,900 -960 Descending FlightAware
05:10PM 41.0490 -89.9290 66° East 435 501 27,300 -1,080 Descending FlightAware
05:11PM 41.0810 -89.8300 67° East 433 498 26,500 -2,100 Descending FlightAware
05:12PM 41.1160 -89.7220 67° East 432 497 24,400 -1,800 Descending FlightAware
05:12PM 41.1490 -89.6200 67° East 427 491 24,000 -1,200 Descending FlightAware
05:13PM 41.1900 -89.5140 63° Northeast 418 481 22,700 -1,920 Descending FlightAware
05:14PM 41.2250 -89.4260 62° Northeast 412 474 21,300 -2,220 Descending FlightAware
05:14PM 41.2620 -89.3340 62° Northeast 402 463 19,800 -2,220 Descending FlightAware
05:15PM 41.2990 -89.2430 62° Northeast 389 448 18,200 -2,160 Descending FlightAware
05:16PM 41.3330 -89.1570 62° Northeast 381 438 16,800 -2,160 Descending FlightAware
05:17PM 41.3700 -89.0660 62° Northeast 378 435 15,200 -2,160 Descending FlightAware
05:17PM 41.4030 -88.9840 62° Northeast 373 429 13,800 -2,100 Descending FlightAware
05:18PM 41.4390 -88.8940 62° Northeast 362 417 12,300 -1,980 Descending FlightAware
05:19PM 41.4700 -88.8150 62° Northeast 348 400 11,000 -1,080 Descending FlightAware
05:19PM 41.4980 -88.7440 62° Northeast 305 351 10,900  Descending FlightAware
05:20PM 41.5270 -88.6700 62° Northeast 293 337 11,000 60 Climbing FlightAware
05:21PM 41.5490 -88.6070 65° Northeast 296 341 11,000 -120 Level FlightAware
05:21PM 41.5640 -88.5620 66° East 294 338 10,900 -540 Descending FlightAware
05:22PM 41.5960 -88.4980 56° Northeast 299 344 10,400 -1,080 Descending FlightAware
05:22PM 41.6180 -88.4530 57° Northeast 299 344 9,700 -1,500 Descending FlightAware
05:23PM 41.6320 -88.4290 52° Northeast 296 341 9,300 -1,500 Descending FlightAware
05:23PM 41.6530 -88.3930 52° Northeast 292 336 8,700 -1,440 Descending FlightAware
05:24PM 41.6740 -88.3610 49° Northeast 290 334 8,100 -960 Descending FlightAware
05:24PM 41.6990 -88.3480 21° North 284 327 8,000 -180 Descending FlightAware
05:24PM 41.7310 -88.3340 18° North 281 323 8,000 -240 Level FlightAware
05:25PM 41.7660 -88.3180 19° North 279 321 7,800 -660 Descending FlightAware
05:25PM 41.8000 -88.3030 18° North 282 325 7,400 -1,020 Descending FlightAware
05:26PM 41.8350 -88.2870 19° North 281 323 6,900 -1,200 Descending FlightAware
05:26PM 41.8650 -88.2740 18° North 279 321 6,300 -1,500 Descending FlightAware
05:26PM 41.8840 -88.2650 19° North 276 318 5,900 -1,620 Descending FlightAware
05:27PM 41.9200 -88.2470 20° North 273 314 5,100 -1,500 Descending FlightAware
05:27PM 41.9320 -88.2310 45° Northeast 273 314 4,800 -1,200 Descending FlightAware
05:27PM 41.9390 -88.2120 64° Northeast 274 315 4,600 -960 Descending FlightAware
05:28PM 41.9460 -88.1900 67° East 269 310 4,400 -1,080 Descending FlightAware
05:28PM 41.9600 -88.1450 67° East 256 295 3,800 -1,320 Descending FlightAware
05:28PM 41.9690 -88.1110 70° East 231 266 3,200 -1,200 Descending FlightAware
05:29PM 41.9690 -88.0890 90° East 214 246 3,000 -1,080 Descending FlightAware
05:29PM 41.9690 -88.0540 90° East 189 217 2,400 -1,140 Descending FlightAware
05:30PM 41.9690 -88.0260 90° East 170 196 2,000 -900 Descending FlightAware
05:30PM 41.9690 -87.9970 90° East 153 176 1,600 -840 Descending FlightAware
05:31PM 41.9690 -87.9620 90° East 147 169 1,100 -900 Descending FlightAware
05:31PM 41.9690 -87.9310 90° East 149 171 600 -540 Descending FlightAware
05:32PM 41.9690 -87.9090 90° East 149 171 600  Level FlightAware